^^
Saratoga-Weather Station Historical Data
Daily Summary for August 28, 2020 Units:  Metric    English   Both
Daily Weekly Monthly Yearly Custom
  High: Low: Average:
Temperature: 5.1 °C 0.3 °C 1.8 °C
Dew Point: 3.9 °C -0.1 °C 1.4 °C
Humidity: 98% 92% 97%
Wind Speed: 6.4km/h 0km/h 1.3km/h
Wind Gust: 12.9km/h - -
Wind- - East
Pressure: 1019.3 hPa 1017.6 hPa -
Precipitation: 0.2 mm    
Historical Graphs
 
 
Tabular Data for August 28, 2020
Time Temperature Dew Point Pressure Wind Wind Speed Wind Gust Humidity Rainfall Rate (Hourly) solar
00:00 1.9 °C 1.5 °C 1019.0 hPa Calm     97% 0.0 mm 0 W/m2
00:05 1.8 °C 1.4 °C 1019.0 hPa Calm     97% 0.0 mm 0 W/m2
00:10 1.7 °C 1.3 °C 1019.0 hPa Calm     97% 0.0 mm 0 W/m2
00:15 1.7 °C 1.3 °C 1019.0 hPa Calm     97% 0.0 mm 0 W/m2
00:20 1.6 °C 1.2 °C 1019.0 hPa Calm     97% 0.0 mm 0 W/m2
00:25 1.5 °C 1.1 °C 1019.0 hPa Calm     97% 0.0 mm 0 W/m2
00:30 1.5 °C 1.1 °C 1019.0 hPa Calm     97% 0.0 mm 0 W/m2
00:35 1.4 °C 1 °C 1019.0 hPa Calm     97% 0.0 mm 0 W/m2
00:40 1.3 °C 0.9 °C 1019.0 hPa Calm     97% 0.0 mm 0 W/m2
00:45 1.2 °C 0.8 °C 1019.0 hPa Calm     97% 0.0 mm 0 W/m2
00:50 1.2 °C 0.8 °C 1019.0 hPa Calm     97% 0.0 mm 0 W/m2
00:55 1.1 °C 0.7 °C 1019.0 hPa Calm     97% 0.0 mm 0 W/m2
01:00 1.1 °C 0.7 °C 1019.0 hPa Calm     97% 0.0 mm 0 W/m2
01:05 1 °C 0.6 °C 1019.0 hPa Calm     97% 0.0 mm 0 W/m2
01:10 0.9 °C 0.5 °C 1019.0 hPa Calm     97% 0.0 mm 0 W/m2
01:15 0.9 °C 0.5 °C 1018.6 hPa Calm     97% 0.0 mm 0 W/m2
01:20 0.9 °C 0.5 °C 1018.6 hPa Calm   1.6 km/h 97% 0.0 mm 0 W/m2
01:25 1 °C 0.6 °C 1018.6 hPa Calm     97% 0.0 mm 0 W/m2
01:30 1 °C 0.6 °C 1018.6 hPa Calm     97% 0.0 mm 0 W/m2
01:35 0.9 °C 0.5 °C 1018.6 hPa Calm     97% 0.0 mm 0 W/m2
01:40 0.8 °C 0.4 °C 1018.6 hPa Calm     97% 0.0 mm 0 W/m2
01:45 0.7 °C 0.3 °C 1018.6 hPa Calm     97% 0.0 mm 0 W/m2
01:51 0.6 °C 0.2 °C 1018.6 hPa Calm     97% 0.0 mm 0 W/m2
01:56 0.6 °C 0.2 °C 1018.6 hPa Calm     97% 0.0 mm 0 W/m2
02:01 0.6 °C 0.2 °C 1018.6 hPa Calm     97% 0.0 mm 0 W/m2
02:06 0.6 °C 0.2 °C 1018.6 hPa Calm     97% 0.0 mm 0 W/m2
02:11 0.6 °C 0.2 °C 1018.6 hPa Calm     97% 0.0 mm 0 W/m2
02:16 0.7 °C 0.3 °C 1018.6 hPa Calm     97% 0.0 mm 0 W/m2
02:21 0.7 °C 0.3 °C 1018.6 hPa Calm     97% 0.0 mm 0 W/m2
02:26 0.7 °C 0.3 °C 1018.6 hPa Calm     97% 0.0 mm 0 W/m2
02:31 0.8 °C 0.4 °C 1018.6 hPa Calm     97% 0.0 mm 0 W/m2
02:36 0.7 °C 0.3 °C 1018.6 hPa Calm     97% 0.0 mm 0 W/m2
02:41 0.7 °C 0.3 °C 1018.6 hPa Calm     97% 0.0 mm 0 W/m2
02:46 0.7 °C 0.3 °C 1018.6 hPa Calm     97% 0.0 mm 0 W/m2
02:51 0.8 °C 0.4 °C 1018.6 hPa East 1.4 km/h 4.8 km/h 97% 0.0 mm 0 W/m2
02:56 0.8 °C 0.4 °C 1018.6 hPa East 1.4 km/h 3.2 km/h 97% 0.0 mm 0 W/m2
03:01 0.8 °C 0.4 °C 1018.6 hPa Calm   4.8 km/h 97% 0.0 mm 0 W/m2
03:06 0.7 °C 0.3 °C 1018.6 hPa ESE 3.2 km/h 3.2 km/h 97% 0.0 mm 0 W/m2
03:11 0.7 °C 0.3 °C 1018.6 hPa Calm   1.6 km/h 97% 0.0 mm 0 W/m2
03:16 0.6 °C 0.2 °C 1018.6 hPa Calm   1.6 km/h 97% 0.0 mm 0 W/m2
03:21 0.5 °C 0.1 °C 1018.6 hPa Calm     97% 0.0 mm 0 W/m2
03:26 0.4 °C 0 °C 1018.6 hPa Calm   1.6 km/h 97% 0.0 mm 0 W/m2
03:31 0.3 °C -0.1 °C 1018.6 hPa Calm   1.6 km/h 97% 0.0 mm 0 W/m2
03:36 0.3 °C -0.1 °C 1018.6 hPa Calm   1.6 km/h 97% 0.0 mm 0 W/m2
03:41 0.3 °C -0.1 °C 1018.6 hPa Calm     97% 0.0 mm 0 W/m2
03:46 0.3 °C -0.1 °C 1018.6 hPa Calm     97% 0.0 mm 0 W/m2
03:51 0.3 °C -0.1 °C 1018.6 hPa Calm   1.6 km/h 97% 0.0 mm 0 W/m2
03:56 0.4 °C 0 °C 1018.6 hPa ESE 1.4 km/h 3.2 km/h 97% 0.0 mm 0 W/m2
04:01 0.5 °C 0.1 °C 1018.3 hPa Calm     97% 0.0 mm 0 W/m2
04:06 0.6 °C 0.2 °C 1018.3 hPa ESE 1.4 km/h 3.2 km/h 97% 0.0 mm 0 W/m2
04:11 0.7 °C 0.3 °C 1018.3 hPa Calm   3.2 km/h 97% 0.0 mm 0 W/m2
04:16 0.7 °C 0.3 °C 1018.3 hPa Calm     97% 0.0 mm 0 W/m2
04:21 0.8 °C 0.4 °C 1018.3 hPa East 1.4 km/h 4.8 km/h 97% 0.0 mm 0 W/m2
04:26 0.8 °C 0.4 °C 1018.3 hPa East 1.4 km/h 1.6 km/h 97% 0.0 mm 0 W/m2
04:31 0.9 °C 0.6 °C 1018.3 hPa ENE 1.4 km/h 4.8 km/h 98% 0.0 mm 0 W/m2
04:36 0.9 °C 0.6 °C 1018.3 hPa Calm   3.2 km/h 98% 0.0 mm 0 W/m2
04:41 1 °C 0.7 °C 1018.3 hPa Calm   3.2 km/h 98% 0.0 mm 0 W/m2
04:46 1 °C 0.6 °C 1018.3 hPa ENE 1.4 km/h 1.6 km/h 97% 0.0 mm 0 W/m2
04:51 1.1 °C 0.7 °C 1018.3 hPa Calm   3.2 km/h 97% 0.0 mm 0 W/m2
04:56 1.1 °C 0.7 °C 1018.3 hPa Calm     97% 0.0 mm 0 W/m2
05:01 1.1 °C 0.7 °C 1018.3 hPa Calm     97% 0.0 mm 0 W/m2
05:06 1.1 °C 0.7 °C 1018.3 hPa Calm     97% 0.0 mm 0 W/m2
05:11 1.1 °C 0.7 °C 1018.3 hPa Calm   1.6 km/h 97% 0.0 mm 0 W/m2
05:16 1.1 °C 0.7 °C 1018.3 hPa Calm     97% 0.0 mm 0 W/m2
05:21 1.2 °C 0.9 °C 1018.3 hPa ESE 4.7 km/h 6.4 km/h 98% 0.0 mm 0 W/m2
05:26 1.2 °C 0.9 °C 1018.3 hPa SE 4.7 km/h 6.4 km/h 98% 0.0 mm 0 W/m2
05:31 1.2 °C 0.9 °C 1018.3 hPa ENE 6.4 km/h 12.9 km/h 98% 0.0 mm 0 W/m2
05:36 1.1 °C 0.7 °C 1018.3 hPa NE 3.2 km/h 6.4 km/h 97% 0.0 mm 0 W/m2
05:41 1.1 °C 0.7 °C 1018.3 hPa ENE 1.4 km/h 4.8 km/h 97% 0.0 mm 0 W/m2
05:46 1 °C 0.6 °C 1018.3 hPa ENE 1.4 km/h 3.2 km/h 97% 0.0 mm 0 W/m2
05:51 1 °C 0.7 °C 1018.3 hPa NE 1.4 km/h 4.8 km/h 98% 0.0 mm 0 W/m2
05:56 1 °C 0.6 °C 1018.3 hPa NE 4.7 km/h 4.8 km/h 97% 0.0 mm 0 W/m2
06:01 1 °C 0.6 °C 1018.3 hPa NE 1.4 km/h 4.8 km/h 97% 0.0 mm 0 W/m2
06:06 1 °C 0.6 °C 1018.3 hPa ENE 1.4 km/h 3.2 km/h 97% 0.0 mm 0 W/m2
06:11 1 °C 0.6 °C 1018.3 hPa ENE 4.7 km/h 4.8 km/h 97% 0.0 mm 0 W/m2
06:16 1 °C 0.6 °C 1018.6 hPa Calm   3.2 km/h 97% 0.0 mm 0 W/m2
06:21 1 °C 0.7 °C 1018.3 hPa NE 3.2 km/h 3.2 km/h 98% 0.0 mm 0 W/m2
06:26 1 °C 0.6 °C 1018.6 hPa ENE 1.4 km/h 1.6 km/h 97% 0.0 mm 0 W/m2
06:31 1 °C 0.6 °C 1018.6 hPa Calm   6.4 km/h 97% 0.0 mm 0 W/m2
06:36 1 °C 0.6 °C 1018.6 hPa ENE 3.2 km/h 3.2 km/h 97% 0.0 mm 0 W/m2
06:41 1 °C 0.6 °C 1018.6 hPa Calm   3.2 km/h 97% 0.0 mm 0 W/m2
06:46 1.1 °C 0.7 °C 1018.6 hPa NE 3.2 km/h 4.8 km/h 97% 0.0 mm 0 W/m2
06:51 1.1 °C 0.7 °C 1018.6 hPa ENE 3.2 km/h 4.8 km/h 97% 0.0 mm 0 W/m2
06:56 1.1 °C 0.7 °C 1018.6 hPa NE 1.4 km/h 4.8 km/h 97% 0.0 mm 0 W/m2
07:01 1 °C 0.7 °C 1018.6 hPa East 1.4 km/h 6.4 km/h 98% 0.0 mm 0 W/m2
07:06 1 °C 0.6 °C 1018.6 hPa NE 1.4 km/h 3.2 km/h 97% 0.0 mm 0 W/m2
07:11 1 °C 0.6 °C 1018.6 hPa ENE 1.4 km/h 3.2 km/h 97% 0.0 mm 0 W/m2
07:16 1 °C 0.6 °C 1018.6 hPa ENE 1.4 km/h 3.2 km/h 97% 0.0 mm 0 W/m2
07:21 1.1 °C 0.7 °C 1018.6 hPa ENE 4.7 km/h 4.8 km/h 97% 0.0 mm 0 W/m2
07:26 1 °C 0.6 °C 1019.0 hPa ENE 6.4 km/h 8 km/h 97% 0.0 mm 0 W/m2
07:31 1 °C 0.6 °C 1018.6 hPa ENE 1.4 km/h 4.8 km/h 97% 0.0 mm 0 W/m2
07:36 1 °C 0.7 °C 1018.6 hPa ENE 3.2 km/h 6.4 km/h 98% 0.0 mm 0 W/m2
07:41 1 °C 0.7 °C 1018.6 hPa NE 3.2 km/h 6.4 km/h 98% 0.0 mm 0 W/m2
07:46 1 °C 0.7 °C 1018.6 hPa East 3.2 km/h 3.2 km/h 98% 0.0 mm 0 W/m2
07:51 1 °C 0.6 °C 1018.6 hPa Calm   1.6 km/h 97% 0.0 mm 0 W/m2
07:56 1 °C 0.6 °C 1019.0 hPa ENE 3.2 km/h 3.2 km/h 97% 0.0 mm 0 W/m2
08:01 1 °C 0.6 °C 1019.0 hPa NE 4.7 km/h 9.7 km/h 97% 0.0 mm 0 W/m2
08:06 1 °C 0.7 °C 1019.0 hPa ENE 4.7 km/h 8 km/h 98% 0.0 mm 0 W/m2
08:11 0.9 °C 0.6 °C 1019.0 hPa ENE 3.2 km/h 3.2 km/h 98% 0.0 mm 0 W/m2
08:16 1 °C 0.7 °C 1019.0 hPa Calm   4.8 km/h 98% 0.0 mm 0 W/m2
08:21 1 °C 0.7 °C 1019.0 hPa East 3.2 km/h 4.8 km/h 98% 0.0 mm 0 W/m2
08:26 1 °C 0.7 °C 1019.0 hPa ENE 4.7 km/h 4.8 km/h 98% 0.0 mm 5 W/m2
08:31 1 °C 0.7 °C 1019.0 hPa ENE 1.4 km/h 8 km/h 98% 0.0 mm 5 W/m2
08:36 1 °C 0.7 °C 1019.0 hPa SE 1.4 km/h 4.8 km/h 98% 0.0 mm 7 W/m2
08:41 1.1 °C 0.8 °C 1019.0 hPa ENE 4.7 km/h 8 km/h 98% 0.0 mm 9 W/m2
08:46 1.1 °C 0.8 °C 1019.0 hPa Calm   3.2 km/h 98% 0.0 mm 9 W/m2
08:51 1.1 °C 0.8 °C 1019.0 hPa ENE 1.4 km/h 6.4 km/h 98% 0.0 mm 16 W/m2
08:56 1.1 °C 0.8 °C 1019.0 hPa NE 1.4 km/h 4.8 km/h 98% 0.0 mm 14 W/m2
09:01 1.1 °C 0.8 °C 1019.0 hPa NE 1.4 km/h 4.8 km/h 98% 0.0 mm 19 W/m2
09:06 1.1 °C 0.8 °C 1019.0 hPa ENE 3.2 km/h 4.8 km/h 98% 0.0 mm 14 W/m2
09:11 1.1 °C 0.8 °C 1019.0 hPa Calm   4.8 km/h 98% 0.0 mm 21 W/m2
09:16 1.1 °C 0.8 °C 1019.3 hPa ENE 3.2 km/h 9.7 km/h 98% 0.0 mm 21 W/m2
09:21 1.1 °C 0.8 °C 1019.3 hPa NE 3.2 km/h 8 km/h 98% 0.0 mm 28 W/m2
09:26 1.1 °C 0.8 °C 1019.3 hPa ENE 3.2 km/h 6.4 km/h 98% 0.0 mm 37 W/m2
09:31 1.1 °C 0.8 °C 1019.3 hPa NE 4.7 km/h 8 km/h 98% 0.0 mm 30 W/m2
09:36 1.1 °C 0.8 °C 1019.3 hPa ESE 1.4 km/h 6.4 km/h 98% 0.2 mm 32 W/m2
09:42 1.1 °C 0.8 °C 1019.3 hPa NE 4.7 km/h 6.4 km/h 98% 0.2 mm 44 W/m2
09:47 1.1 °C 0.8 °C 1019.3 hPa ESE 1.4 km/h 3.2 km/h 98% 0.2 mm 42 W/m2
09:52 1.2 °C 0.9 °C 1019.3 hPa East 4.7 km/h 6.4 km/h 98% 0.2 mm 51 W/m2
09:57 1.2 °C 0.9 °C 1019.3 hPa Calm   1.6 km/h 98% 0.2 mm 46 W/m2
10:02 1.3 °C 1 °C 1019.3 hPa NE 4.7 km/h 6.4 km/h 98% 0.2 mm 47 W/m2
10:07 1.3 °C 1 °C 1019.3 hPa ENE 3.2 km/h 6.4 km/h 98% 0.2 mm 56 W/m2
10:12 1.3 °C 1 °C 1019.3 hPa ENE 3.2 km/h 4.8 km/h 98% 0.2 mm 53 W/m2
10:17 1.3 °C 1 °C 1019.3 hPa Calm   4.8 km/h 98% 0.2 mm 56 W/m2
10:22 1.3 °C 1 °C 1019.3 hPa ESE 1.4 km/h 3.2 km/h 98% 0.2 mm 56 W/m2
10:27 1.4 °C 1.1 °C 1019.3 hPa Calm   6.4 km/h 98% 0.2 mm 60 W/m2
10:35 1.5 °C 1.2 °C 1019.3 hPa ENE 4.7 km/h 6.4 km/h 98% 0.0 mm 67 W/m2
10:40 1.5 °C 1.2 °C 1019.3 hPa ENE 1.4 km/h 4.8 km/h 98% 0.0 mm 67 W/m2
10:45 1.5 °C 1.2 °C 1019.3 hPa East 6.4 km/h 6.4 km/h 98% 0.0 mm 72 W/m2
10:50 1.6 °C 1.3 °C 1019.3 hPa Calm   8 km/h 98% 0.0 mm 63 W/m2
10:55 1.6 °C 1.3 °C 1019.3 hPa ENE 3.2 km/h 6.4 km/h 98% 0.0 mm 93 W/m2
11:00 1.6 °C 1.3 °C 1019.3 hPa ENE 3.2 km/h 8 km/h 98% 0.0 mm 79 W/m2
11:05 1.7 °C 1.4 °C 1019.3 hPa ENE 1.4 km/h 4.8 km/h 98% 0.0 mm 105 W/m2
11:14 1.7 °C 1.4 °C 1019.3 hPa East 3.2 km/h 4.8 km/h 98% 0.0 mm 91 W/m2
11:19 1.7 °C 1.4 °C 1019.3 hPa NE 3.2 km/h 6.4 km/h 98% 0.0 mm 88 W/m2
11:24 1.7 °C 1.4 °C 1019.0 hPa Calm     98% 0.0 mm 86 W/m2
11:29 1.8 °C 1.5 °C 1019.0 hPa NE 3.2 km/h 6.4 km/h 98% 0.0 mm 144 W/m2
11:34 1.9 °C 1.6 °C 1019.0 hPa ESE 3.2 km/h 4.8 km/h 98% 0.0 mm 62 W/m2
11:39 2.1 °C 1.8 °C 1019.0 hPa East 3.2 km/h 6.4 km/h 98% 0.0 mm 104 W/m2
11:44 2.2 °C 1.9 °C 1019.0 hPa NNW 1.4 km/h 3.2 km/h 98% 0.0 mm 69 W/m2
11:49 2.2 °C 1.9 °C 1019.0 hPa ENE 3.2 km/h 4.8 km/h 98% 0.0 mm 98 W/m2
11:54 2.2 °C 1.9 °C 1019.0 hPa East 1.4 km/h 8 km/h 98% 0.0 mm 51 W/m2
11:59 2.2 °C 1.9 °C 1019.0 hPa Calm   1.6 km/h 98% 0.0 mm 53 W/m2
12:04 2.2 °C 1.9 °C 1019.0 hPa ENE 1.4 km/h 8 km/h 98% 0.0 mm 49 W/m2
12:09 2.3 °C 2 °C 1018.6 hPa East 4.7 km/h 9.7 km/h 98% 0.0 mm 37 W/m2
12:14 2.4 °C 2.1 °C 1018.6 hPa Calm   4.8 km/h 98% 0.0 mm 47 W/m2
12:19 2.6 °C 2.3 °C 1018.6 hPa NE 6.4 km/h 6.4 km/h 98% 0.0 mm 40 W/m2
12:24 2.7 °C 2.4 °C 1019.0 hPa North 4.7 km/h 6.4 km/h 98% 0.0 mm 42 W/m2
12:29 2.7 °C 2.4 °C 1019.0 hPa Calm   4.8 km/h 98% 0.0 mm 47 W/m2
12:34 2.7 °C 2.3 °C 1018.6 hPa Calm   3.2 km/h 97% 0.0 mm 47 W/m2
12:39 2.8 °C 2.5 °C 1018.6 hPa WNW 1.4 km/h 4.8 km/h 98% 0.0 mm 40 W/m2
12:44 2.8 °C 2.4 °C 1018.6 hPa ENE 3.2 km/h 4.8 km/h 97% 0.0 mm 42 W/m2
12:49 2.8 °C 2.4 °C 1018.6 hPa North 1.4 km/h 1.6 km/h 97% 0.0 mm 37 W/m2
12:54 2.9 °C 2.5 °C 1018.6 hPa ENE 3.2 km/h 3.2 km/h 97% 0.0 mm 33 W/m2
12:59 2.9 °C 2.5 °C 1018.3 hPa SE 3.2 km/h 4.8 km/h 97% 0.0 mm 32 W/m2
13:04 3.1 °C 2.7 °C 1018.3 hPa Calm   4.8 km/h 97% 0.0 mm 30 W/m2
13:09 3.2 °C 2.8 °C 1018.3 hPa ESE 1.4 km/h 3.2 km/h 97% 0.0 mm 30 W/m2
13:14 3.3 °C 2.9 °C 1018.3 hPa Calm   4.8 km/h 97% 0.0 mm 32 W/m2
13:19 3.4 °C 3 °C 1018.3 hPa Calm   6.4 km/h 97% 0.0 mm 30 W/m2
13:24 3.6 °C 3.2 °C 1018.3 hPa WSW 3.2 km/h 3.2 km/h 97% 0.0 mm 30 W/m2
13:29 3.7 °C 3.1 °C 1018.3 hPa Calm   1.6 km/h 96% 0.0 mm 30 W/m2
13:34 3.8 °C 3.2 °C 1018.3 hPa Calm   1.6 km/h 96% 0.0 mm 32 W/m2
13:39 3.9 °C 3.3 °C 1018.3 hPa Calm   1.6 km/h 96% 0.0 mm 30 W/m2
13:44 4 °C 3.4 °C 1018.0 hPa Calm   4.8 km/h 96% 0.0 mm 28 W/m2
13:49 4.2 °C 3.6 °C 1018.3 hPa Calm   3.2 km/h 96% 0.0 mm 26 W/m2
13:54 4.3 °C 3.6 °C 1018.3 hPa Calm   4.8 km/h 95% 0.0 mm 26 W/m2
13:59 4.4 °C 3.7 °C 1018.0 hPa Calm   1.6 km/h 95% 0.0 mm 26 W/m2
14:04 4.5 °C 3.8 °C 1018.0 hPa WNW 3.2 km/h 3.2 km/h 95% 0.0 mm 26 W/m2
14:10 4.4 °C 3.5 °C 1018.0 hPa SSW 1.4 km/h 3.2 km/h 94% 0.0 mm 25 W/m2
14:15 4.4 °C 3.5 °C 1018.0 hPa Calm     94% 0.0 mm 25 W/m2
14:20 4.3 °C 3.4 °C 1018.0 hPa Calm     94% 0.0 mm 25 W/m2
14:25 4.5 °C 3.6 °C 1018.0 hPa ENE 3.2 km/h 4.8 km/h 94% 0.0 mm 23 W/m2
14:30 4.8 °C 3.9 °C 1018.0 hPa Calm   3.2 km/h 94% 0.0 mm 23 W/m2
14:35 4.9 °C 3.9 °C 1018.0 hPa SW 1.4 km/h 1.6 km/h 93% 0.0 mm 23 W/m2
14:40 4.9 °C 3.7 °C 1018.0 hPa Calm   3.2 km/h 92% 0.0 mm 23 W/m2
14:45 4.9 °C 3.9 °C 1017.6 hPa East 1.4 km/h 4.8 km/h 93% 0.0 mm 21 W/m2
14:50 5.1 °C 3.9 °C 1018.0 hPa Calm   1.6 km/h 92% 0.0 mm 21 W/m2
14:55 4.9 °C 3.7 °C 1018.0 hPa Calm   4.8 km/h 92% 0.0 mm 21 W/m2
15:00 4.8 °C 3.6 °C 1018.0 hPa Calm     92% 0.0 mm 21 W/m2
15:05 4.7 °C 3.5 °C 1018.0 hPa Calm     92% 0.0 mm 21 W/m2
15:10 4.7 °C 3.5 °C 1018.0 hPa Calm     92% 0.0 mm 21 W/m2
15:15 4.6 °C 3.4 °C 1018.0 hPa Calm     92% 0.0 mm 19 W/m2
15:20 4.4 °C 3.2 °C 1018.0 hPa ESE 3.2 km/h 3.2 km/h 92% 0.0 mm 19 W/m2
15:25 4.3 °C 3.3 °C 1018.0 hPa Calm   3.2 km/h 93% 0.0 mm 19 W/m2
15:30 4.3 °C 3.3 °C 1018.0 hPa Calm   1.6 km/h 93% 0.0 mm 18 W/m2
15:35 4.3 °C 3.4 °C 1018.0 hPa Calm   3.2 km/h 94% 0.0 mm 18 W/m2
15:40 4.3 °C 3.4 °C 1018.0 hPa SSW 1.4 km/h 4.8 km/h 94% 0.0 mm 18 W/m2
15:45 4.3 °C 3.4 °C 1018.0 hPa Calm   4.8 km/h 94% 0.0 mm 16 W/m2
15:50 4.3 °C 3.4 °C 1018.0 hPa Calm     94% 0.0 mm 16 W/m2
15:55 4.4 °C 3.5 °C 1018.0 hPa Calm   4.8 km/h 94% 0.0 mm 14 W/m2
16:00 4.4 °C 3.5 °C 1018.0 hPa Calm     94% 0.0 mm 14 W/m2
16:05 4.5 °C 3.6 °C 1018.0 hPa Calm     94% 0.0 mm 12 W/m2
16:10 4.4 °C 3.5 °C 1018.0 hPa Calm     94% 0.0 mm 12 W/m2
16:15 4.3 °C 3.3 °C 1018.0 hPa Calm     93% 0.0 mm 11 W/m2
16:20 4.3 °C 3.3 °C 1018.0 hPa Calm     93% 0.0 mm 11 W/m2
Juneau County Weather
Compliments of Weather Underground - 2 mb